Time;durP1;ratioP1;P1;durP2;ratioP2;P2;SDS_P1;SDS_P2;PMS_P1;PMS_P2;Temp;Humidity;BMP_temperature;BMP_pressure;BME280_temperature;BME280_humidity;BME280_pressure;Samples;Min_cycle;Max_cycle;Signal;HPM_P1;HPM_P2
2022/03/19 00:08:06;;;;;;;128.27;44.63;;;;;;;5.13;51.40;103123.83;712912;1176;114966;-75
2022/03/19 00:23:09;;;;;;;78.38;29.23;;;;;;;4.98;52.03;103126.72;713044;1176;114938;-74
2022/03/19 00:38:11;;;;;;;59.63;26.70;;;;;;;4.72;52.48;103115.04;712871;1176;114888;-75
2022/03/19 00:53:13;;;;;;;175.10;38.75;;;;;;;4.81;52.79;103114.87;712796;1176;115059;-74
2022/03/19 01:08:15;;;;;;;163.90;46.13;;;;;;;4.91;53.64;103101.69;712888;1177;115541;-74
2022/03/19 01:23:18;;;;;;;144.03;49.17;;;;;;;5.00;53.56;103110.19;713113;1175;115937;-74
2022/03/19 01:38:20;;;;;;;149.03;49.07;;;;;;;4.98;54.66;103098.94;712824;1175;115698;-74
2022/03/19 01:53:22;;;;;;;77.55;28.85;;;;;;;5.10;53.96;103100.44;712915;1177;115878;-74
2022/03/19 02:08:25;;;;;;;82.13;31.60;;;;;;;5.05;55.23;103098.83;712855;1175;115556;-75
2022/03/19 02:38:51;;;;;;;89.65;29.58;;;;;;;5.26;53.71;103084.52;713279;1177;115017;-75
2022/03/19 02:53:53;;;;;;;56.55;22.65;;;;;;;5.23;55.43;103088.05;717739;1177;115818;-75
2022/03/19 03:08:56;;;;;;;39.67;18.57;;;;;;;5.25;54.90;103085.41;712935;1175;115951;-75
2022/03/19 03:23:59;;;;;;;36.13;16.73;;;;;;;5.19;55.05;103102.02;712925;1177;115615;-75
2022/03/19 03:39:02;;;;;;;42.87;18.77;;;;;;;5.22;54.38;103112.35;712952;1177;115506;-75
2022/03/19 03:54:05;;;;;;;46.57;20.03;;;;;;;5.20;54.38;103123.68;712981;1175;115258;-74
2022/03/19 04:09:07;;;;;;;30.93;15.53;;;;;;;5.16;53.37;103126.36;713903;1177;115158;-75
2022/03/19 04:24:10;;;;;;;36.07;17.20;;;;;;;5.19;54.42;103150.59;713358;1177;115857;-74
2022/03/19 04:39:12;;;;;;;43.65;20.10;;;;;;;5.07;53.97;103157.77;713558;1175;115663;-75
2022/03/19 04:54:16;;;;;;;55.78;23.02;;;;;;;4.87;54.42;103154.66;713043;1177;115851;-75
2022/03/19 05:24:40;;;;;;;59.23;24.73;;;;;;;5.08;54.96;103190.72;713479;1175;115342;-79
2022/03/19 05:39:43;;;;;;;45.10;20.60;;;;;;;5.32;54.44;103204.16;713344;1175;114259;-74
2022/03/19 05:54:45;;;;;;;67.77;25.67;;;;;;;5.63;54.55;103221.76;713227;1177;115406;-72
2022/03/19 06:09:48;;;;;;;79.03;30.67;;;;;;;5.85;54.96;103232.59;713397;1175;115470;-73
2022/03/19 06:24:50;;;;;;;222.87;75.70;;;;;;;6.20;54.81;103253.59;712583;1177;115603;-74
2022/03/19 06:39:55;;;;;;;72.38;32.48;;;;;;;6.58;54.72;103270.13;713284;1177;115777;-72
2022/03/19 06:54:57;;;;;;;55.18;24.25;;;;;;;6.96;54.59;103281.38;713353;1174;115652;-73
2022/03/19 07:09:59;;;;;;;57.00;26.00;;;;;;;7.43;54.21;103288.86;713191;1176;115752;-73
2022/03/19 07:25:02;;;;;;;42.90;20.30;;;;;;;7.87;53.58;103307.69;713900;1175;114365;-73
2022/03/19 07:40:05;;;;;;;36.98;21.08;;;;;;;8.59;52.76;103320.41;713610;1176;116942;-80
2022/03/19 07:55:08;;;;;;;36.70;19.85;;;;;;;9.16;51.20;103312.47;714030;1174;115706;-81
2022/03/19 08:10:11;;;;;;;36.53;16.95;;;;;;;9.99;50.48;103327.86;713703;1174;115841;-87
2022/03/19 08:25:14;;;;;;;104.88;42.55;;;;;;;10.62;48.92;103334.25;714619;1175;114957;-86
2022/03/19 08:40:16;;;;;;;46.13;21.25;;;;;;;12.14;47.77;103347.94;714695;1177;115461;-90
2022/03/19 08:55:18;;;;;;;80.43;28.23;;;;;;;12.68;44.53;103343.69;714131;1175;114905;-89
2022/03/19 09:10:20;;;;;;;294.98;67.18;;;;;;;12.92;42.55;103352.16;714151;1174;116045;-83
2022/03/19 09:25:23;;;;;;;65.88;24.03;;;;;;;14.02;41.59;103363.25;714749;1177;116496;-80
2022/03/19 09:40:26;;;;;;;74.48;27.73;;;;;;;14.77;39.73;103363.53;716653;1176;115275;-75
2022/03/19 09:55:30;;;;;;;43.70;23.20;;;;;;;15.45;38.68;103356.93;713854;1175;115525;-77
2022/03/19 10:10:33;;;;;;;31.27;15.97;;;;;;;16.01;37.99;103356.20;713420;1174;115412;-79
2022/03/19 10:25:36;;;;;;;79.70;34.38;;;;;;;16.06;36.84;103354.12;713327;1177;115166;-75
2022/03/19 10:40:40;;;;;;;45.25;19.00;;;;;;;16.33;35.63;103348.00;713492;1176;115403;-77
2022/03/19 10:55:42;;;;;;;41.38;23.08;;;;;;;16.60;35.62;103336.55;713077;1175;115678;-76
2022/03/19 11:10:48;;;;;;;20.23;12.58;;;;;;;17.49;35.60;103321.77;714246;1175;115295;-81
2022/03/19 11:25:57;;;;;;;32.35;15.73;;;;;;;17.90;34.83;103325.94;713996;1176;116063;-74
2022/03/19 11:41:00;;;;;;;35.58;15.15;;;;;;;18.30;34.12;103316.92;713884;1176;115241;-83
2022/03/19 11:56:03;;;;;;;22.15;13.60;;;;;;;18.18;34.40;103307.20;714842;1176;115889;-85
2022/03/19 12:11:16;;;;;;;28.13;15.50;;;;;;;18.61;34.70;103291.57;715197;1177;115130;-84
2022/03/19 12:26:22;;;;;;;23.20;14.93;;;;;;;19.08;34.88;103278.31;714557;1177;115084;-85
2022/03/19 12:41:28;;;;;;;31.63;17.00;;;;;;;18.83;33.90;103284.61;714287;1177;115218;-85
2022/03/19 12:56:49;;;;;;;36.20;22.60;;;;;;;20.02;34.22;103267.38;714344;1175;114679;-82
2022/03/19 13:11:52;;;;;;;97.30;43.83;;;;;;;20.28;34.02;103254.58;715468;1175;114873;-83
2022/03/19 13:26:57;;;;;;;30.83;19.17;;;;;;;20.18;34.00;103244.78;713187;1176;114667;-83
2022/03/19 13:42:12;;;;;;;30.50;17.68;;;;;;;20.10;33.35;103232.95;713626;1177;114683;-82
2022/03/19 13:57:16;;;;;;;59.60;26.83;;;;;;;26.72;31.92;103219.27;713489;1174;114687;-83
2022/03/19 14:12:35;;;;;;;41.05;21.15;;;;;;;29.93;30.51;103207.34;713437;1177;114669;-76
2022/03/19 14:27:37;;;;;;;;;;;;;;;28.19;27.09;103205.98;713596;1176;115932;-76
2022/03/19 14:42:55;;;;;;;68.17;31.13;;;;;;;28.90;27.71;103202.03;713594;1177;101734;-81
2022/03/19 14:58:00;;;;;;;167.90;58.60;;;;;;;25.43;28.68;103191.98;713776;1177;115165;-73
2022/03/19 15:13:03;;;;;;;167.98;64.20;;;;;;;19.86;30.54;103187.88;713226;1176;115705;-80
2022/03/19 15:28:08;;;;;;;92.53;46.95;;;;;;;18.71;31.95;103188.02;713446;1175;115429;-80
2022/03/19 15:43:11;;;;;;;80.83;44.60;;;;;;;18.21;32.95;103180.31;713750;1177;115813;-81
2022/03/19 15:58:14;;;;;;;94.85;44.53;;;;;;;16.78;33.82;103184.23;713694;1177;114252;-72
2022/03/19 16:13:16;;;;;;;116.57;52.43;;;;;;;15.99;34.25;103183.34;713284;1175;115945;-73
2022/03/19 16:28:19;;;;;;;94.30;54.08;;;;;;;14.75;35.34;103196.28;713576;1176;116270;-83
2022/03/19 16:43:20;;;;;;;123.20;60.43;;;;;;;14.03;36.04;103196.03;713563;1176;116078;-71
2022/03/19 16:58:24;;;;;;;82.20;39.43;;;;;;;13.40;37.42;103210.91;713827;1176;116397;-73
2022/03/19 17:13:26;;;;;;;93.30;43.90;;;;;;;12.40;38.12;103222.13;713863;1177;116122;-84
2022/03/19 17:28:28;;;;;;;88.23;39.25;;;;;;;11.64;39.46;103236.20;716357;1175;115939;-77
2022/03/19 17:43:30;;;;;;;70.40;29.35;;;;;;;10.86;39.81;103258.02;715376;1177;115088;-73
2022/03/19 17:58:33;;;;;;;63.10;30.03;;;;;;;10.33;41.12;103262.73;714139;1177;115350;-81
2022/03/19 18:13:37;;;;;;;58.88;29.28;;;;;;;9.74;41.85;103274.60;714812;1176;115509;-82
2022/03/19 18:28:39;;;;;;;123.70;42.73;;;;;;;9.43;41.27;103283.59;715365;1175;115786;-79
2022/03/19 18:43:43;;;;;;;387.47;117.37;;;;;;;8.86;41.47;103296.02;714678;1176;114514;-79
2022/03/19 18:58:46;;;;;;;118.10;35.15;;;;;;;8.25;42.92;103310.94;715812;1175;115421;-71
2022/03/19 19:13:49;;;;;;;123.70;48.57;;;;;;;7.72;43.49;103318.56;714450;1176;114472;-72
2022/03/19 19:28:51;;;;;;;104.55;41.40;;;;;;;7.27;43.95;103349.35;714464;1177;114659;-73
2022/03/19 19:43:54;;;;;;;80.37;34.03;;;;;;;6.72;44.12;103351.53;714263;1175;115395;-72
2022/03/19 19:58:56;;;;;;;53.68;23.85;;;;;;;6.37;45.00;103352.31;714201;1177;114742;-71
2022/03/19 20:13:58;;;;;;;99.87;39.30;;;;;;;6.15;46.02;103344.95;714024;1175;114332;-71
2022/03/19 20:29:01;;;;;;;195.55;63.28;;;;;;;5.80;46.12;103360.34;714155;1177;114306;-71
2022/03/19 20:44:05;;;;;;;133.50;47.80;;;;;;;5.42;47.65;103355.83;714269;1175;116057;-72
2022/03/19 20:59:07;;;;;;;124.65;46.95;;;;;;;5.10;47.98;103359.84;714647;1175;115238;-72
2022/03/19 21:14:12;;;;;;;198.00;63.10;;;;;;;4.85;49.08;103364.56;714257;1174;114875;-72
2022/03/19 21:29:14;;;;;;;459.93;150.17;;;;;;;4.32;49.29;103360.07;714637;1177;115333;-72
2022/03/19 21:44:17;;;;;;;316.00;79.70;;;;;;;4.23;50.16;103362.78;714819;1175;115548;-72
2022/03/19 21:59:19;;;;;;;287.70;84.70;;;;;;;4.06;49.71;103379.41;715215;1175;115586;-72
2022/03/19 22:14:22;;;;;;;120.30;41.35;;;;;;;3.75;50.12;103381.47;715193;1177;115872;-72
2022/03/19 22:29:29;;;;;;;120.70;40.35;;;;;;;3.60;50.41;103385.08;720996;1175;115022;-71
2022/03/19 22:44:31;;;;;;;232.60;73.85;;;;;;;3.25;51.28;103399.23;716319;1175;116169;-71
2022/03/19 22:59:34;;;;;;;345.55;101.70;;;;;;;2.80;51.88;103396.94;714805;1177;116110;-72
2022/03/19 23:14:38;;;;;;;269.60;80.22;;;;;;;2.76;52.22;103400.38;715060;1175;115428;-72
2022/03/19 23:29:40;;;;;;;263.07;81.83;;;;;;;2.38;52.10;103402.30;714267;1175;116142;-71
2022/03/19 23:44:43;;;;;;;206.63;68.63;;;;;;;2.23;52.81;103400.63;714327;1177;115825;-72
2022/03/19 23:59:45;;;;;;;102.05;37.75;;;;;;;2.25;52.96;103395.44;714566;1177;115760;-71
